This is the latest recevied weather packets stored in our database for station/object 9W2GDL-10. If no packets are shown the sender has not sent any weather packets the latest 10 day(s).
| Time | Temp. | Humidity | Pressure | Rain* | Wind** | Luminosity | Snow |
|---|---|---|---|---|---|---|---|
| 1788130788 | 30.56° C | 69% | 1011.1 hPa | - | - | - | - |
| 1788129501 | 33.89° C | 59% | 1011 hPa | - | - | - | - |
| 1788119511 | 30° C | 73% | 1010.8 hPa | - | - | - | - |
| 1788118910 | 29.44° C | 74% | 1010.8 hPa | - | - | - | - |
| 1788118310 | 29.44° C | 74% | 1010.9 hPa | - | - | - | - |
| 1788117709 | 30° C | 73% | 1010.9 hPa | - | - | - | - |
| 1788117108 | 29.44° C | 74% | 1011 hPa | - | - | - | - |
| 1788116507 | 30° C | 73% | 1011.2 hPa | - | - | - | - |
| 1788115906 | 30° C | 73% | 1011.2 hPa | - | - | - | - |
| 1788115305 | 30° C | 73% | 1011.3 hPa | - | - | - | - |
| 1788114705 | 30° C | 73% | 1011.5 hPa | - | - | - | - |
| 1788114104 | 30° C | 73% | 1011.6 hPa | - | - | - | - |
| 1788113503 | 30° C | 73% | 1011.8 hPa | - | - | - | - |
| 1788112902 | 30° C | 73% | 1011.8 hPa | - | - | - | - |
| 1788112301 | 30° C | 73% | 1011.9 hPa | - | - | - | - |
| 1788111700 | 30° C | 73% | 1011.9 hPa | - | - | - | - |
| 1788111100 | 30° C | 73% | 1012 hPa | - | - | - | - |
| 1788110499 | 30.56° C | 72% | 1012.1 hPa | - | - | - | - |
| 1788109898 | 30.56° C | 72% | 1012.2 hPa | - | - | - | - |
| 1788109297 | 30.56° C | 72% | 1012.2 hPa | - | - | - | - |
| 1788108696 | 31.11° C | 71% | 1012.2 hPa | - | - | - | - |
| 1788108095 | 30° C | 73% | 1012.3 hPa | - | - | - | - |
| 1788107494 | 30.56° C | 72% | 1012.2 hPa | - | - | - | - |
| 1788106894 | 31.67° C | 70% | 1012.3 hPa | - | - | - | - |
| 1788106533 | 31.67° C | 71% | 1012.4 hPa | - | - | - | - |
* Rain since midnight (hover to see other rain measurements)
** Current wind speed in m/s (hover to see current wind gust speed)